Time;durP1;ratioP1;P1;durP2;ratioP2;P2;SDS_P1;SDS_P2;PMS_P1;PMS_P2;Temp;Humidity;BMP_temperature;BMP_pressure;BME280_temperature;BME280_humidity;BME280_pressure;Samples;Min_cycle;Max_cycle;Signal;HPM_P1;HPM_P2
2022/04/30 00:00:11;;;;;;;16.45;10.77;;;6.10;99.90;;;;;;5042363;28;20053;-48
2022/04/30 00:02:40;;;;;;;16.40;10.80;;;6.00;99.90;;;;;;5042561;28;20048;-48
2022/04/30 00:05:07;;;;;;;17.33;11.38;;;6.00;99.90;;;;;;5044977;28;20053;-47
2022/04/30 00:07:33;;;;;;;13.70;11.02;;;6.00;99.90;;;;;;5043464;28;20120;-48
2022/04/30 00:09:59;;;;;;;14.90;10.40;;;6.00;99.90;;;;;;5042952;28;20552;-49
2022/04/30 00:12:26;;;;;;;16.00;11.60;;;6.00;99.90;;;;;;5024148;28;20049;-47
2022/04/30 00:14:54;;;;;;;14.50;11.77;;;6.00;99.90;;;;;;5028838;28;20053;-48
2022/04/30 00:17:20;;;;;;;19.63;11.60;;;5.90;99.90;;;;;;5044443;28;20060;-46
2022/04/30 00:19:47;;;;;;;16.23;12.07;;;6.00;99.90;;;;;;5044705;28;20076;-47
2022/04/30 00:22:13;;;;;;;18.35;12.35;;;5.90;99.90;;;;;;5043557;28;20176;-52
2022/04/30 00:24:39;;;;;;;17.58;12.50;;;5.90;99.90;;;;;;5030154;28;20057;-49
2022/04/30 00:27:05;;;;;;;19.13;12.60;;;5.90;99.90;;;;;;5016068;28;20491;-54
2022/04/30 00:29:32;;;;;;;19.63;11.60;;;5.80;99.90;;;;;;5042112;28;20516;-46
2022/04/30 00:32:02;;;;;;;16.27;11.48;;;5.90;99.90;;;;;;5042039;28;20081;-51
2022/04/30 00:34:29;;;;;;;18.13;11.48;;;5.80;99.90;;;;;;5044147;28;20057;-53
2022/04/30 00:36:56;;;;;;;17.42;11.48;;;5.80;99.90;;;;;;5046370;28;20055;-51
2022/04/30 00:39:23;;;;;;;15.82;11.73;;;5.80;99.90;;;;;;5044214;28;20514;-53
2022/04/30 00:41:49;;;;;;;19.75;11.70;;;5.80;99.90;;;;;;5045392;28;20519;-52
2022/04/30 00:44:21;;;;;;;16.98;11.45;;;5.80;99.90;;;;;;5043231;28;20152;-51
2022/04/30 00:46:48;;;;;;;16.70;11.77;;;5.80;99.90;;;;;;5046789;28;20077;-52
2022/04/30 00:49:14;;;;;;;16.17;11.68;;;5.70;99.90;;;;;;5045735;28;20148;-53
2022/04/30 00:51:43;;;;;;;16.73;12.35;;;5.70;99.90;;;;;;5036032;28;20163;-47
2022/04/30 00:54:11;;;;;;;16.55;11.25;;;5.70;99.90;;;;;;5044489;28;20087;-48
2022/04/30 00:56:59;;;;;;;15.02;11.30;;;5.70;99.90;;;;;;5029183;28;20071;-53
2022/04/30 00:59:26;;;;;;;16.90;12.23;;;5.60;99.90;;;;;;5044817;28;20045;-48
2022/04/30 01:01:57;;;;;;;16.88;12.30;;;5.60;99.90;;;;;;5026536;28;20048;-49
2022/04/30 01:04:42;;;;;;;17.73;11.57;;;5.60;99.90;;;;;;5041602;28;20148;-52
2022/04/30 01:07:09;;;;;;;17.55;12.25;;;5.50;99.90;;;;;;5028073;28;20566;-49
2022/04/30 01:09:39;;;;;;;18.35;11.77;;;5.50;99.90;;;;;;5045497;28;20057;-50
2022/04/30 01:12:10;;;;;;;17.85;12.52;;;5.50;99.90;;;;;;5043428;28;20076;-48
2022/04/30 01:14:38;;;;;;;15.52;11.50;;;5.40;99.90;;;;;;5041793;28;20084;-49
2022/04/30 01:17:08;;;;;;;19.33;11.23;;;5.40;99.90;;;;;;5043062;28;20120;-49
2022/04/30 01:19:37;;;;;;;14.52;10.90;;;5.40;99.90;;;;;;5042728;28;20045;-51
2022/04/30 01:22:11;;;;;;;17.65;11.70;;;5.40;99.90;;;;;;5042502;28;20053;-51
2022/04/30 01:24:37;;;;;;;19.95;12.18;;;5.30;99.90;;;;;;5041008;28;20169;-52
2022/04/30 01:27:07;;;;;;;15.93;11.27;;;5.30;99.90;;;;;;5040856;28;20045;-50
2022/04/30 01:29:36;;;;;;;17.20;11.48;;;5.30;99.90;;;;;;5023960;28;20159;-50
2022/04/30 01:37:38;;;;;;;16.63;10.80;;;5.20;99.90;;;;;;5037371;28;20648;-50
2022/04/30 01:40:08;;;;;;;;;;;5.20;99.90;;;;;;5034632;28;20084;-51
2022/04/30 01:42:40;;;;;;;15.52;10.50;;;5.20;99.90;;;;;;5042772;28;19920;-52
2022/04/30 01:45:08;;;;;;;13.95;11.13;;;5.10;99.90;;;;;;5027001;28;20064;-52
2022/04/30 01:47:44;;;;;;;19.83;11.60;;;5.10;99.90;;;;;;5040074;28;20116;-50
2022/04/30 01:50:12;;;;;;;21.48;12.13;;;5.10;99.90;;;;;;5043744;28;20765;-45
2022/04/30 01:52:39;;;;;;;16.08;11.05;;;5.10;99.90;;;;;;5043636;28;20111;-48
2022/04/30 01:55:05;;;;;;;16.90;11.25;;;5.10;99.90;;;;;;5041967;28;20150;-50
2022/04/30 01:57:32;;;;;;;16.33;11.45;;;5.00;99.90;;;;;;5044039;28;20049;-48
2022/04/30 02:00:00;;;;;;;15.13;12.00;;;5.00;99.90;;;;;;4998141;28;20230;-45
2022/04/30 02:02:30;;;;;;;22.58;11.90;;;5.00;99.90;;;;;;5042087;28;20056;-50
2022/04/30 02:04:59;;;;;;;16.02;11.40;;;5.00;99.90;;;;;;5040721;28;20045;-52
2022/04/30 02:07:27;;;;;;;18.38;12.13;;;5.00;99.90;;;;;;5024603;28;20045;-52
2022/04/30 02:09:53;;;;;;;17.00;12.05;;;5.00;99.90;;;;;;5043316;28;20529;-51
2022/04/30 02:12:19;;;;;;;14.98;11.45;;;5.00;99.90;;;;;;5042044;28;20045;-48
2022/04/30 02:14:51;;;;;;;17.42;11.57;;;4.90;99.90;;;;;;5026321;28;20044;-51
2022/04/30 02:17:20;;;;;;;19.20;11.95;;;4.90;99.90;;;;;;5037004;28;20497;-49
2022/04/30 02:20:33;;;;;;;18.60;11.35;;;4.90;99.90;;;;;;5041074;28;20052;-49
2022/04/30 02:22:38;;;;;;;19.70;12.25;;;4.90;99.90;;;;;;5021601;28;20099;-49
2022/04/30 02:25:10;;;;;;;17.40;12.05;;;4.90;99.90;;;;;;5041618;28;20531;-50
2022/04/30 02:27:42;;;;;;;18.10;11.93;;;4.90;99.90;;;;;;5037835;28;20048;-50
2022/04/30 02:30:14;;;;;;;16.80;11.67;;;4.90;99.90;;;;;;5023354;28;20055;-50
2022/04/30 02:32:48;;;;;;;15.77;11.52;;;4.90;99.90;;;;;;5039992;28;20296;-51
2022/04/30 02:35:16;;;;;;;17.05;11.80;;;4.90;99.90;;;;;;5043405;28;20111;-52
2022/04/30 02:37:44;;;;;;;21.13;12.80;;;4.90;99.90;;;;;;5038953;28;20129;-45
2022/04/30 02:40:12;;;;;;;18.70;13.20;;;4.90;99.90;;;;;;5032534;28;20107;-48
2022/04/30 02:42:39;;;;;;;18.80;13.13;;;4.90;99.90;;;;;;5027472;28;20049;-50
2022/04/30 02:45:09;;;;;;;17.20;12.25;;;4.90;99.90;;;;;;5041396;28;20052;-49
2022/04/30 02:47:39;;;;;;;18.10;12.65;;;4.90;99.90;;;;;;5024551;28;20655;-49
2022/04/30 02:50:07;;;;;;;19.42;13.48;;;4.90;99.90;;;;;;5034352;28;20098;-51
2022/04/30 02:52:34;;;;;;;18.55;12.77;;;4.90;99.90;;;;;;5041381;28;20048;-50
2022/04/30 02:55:00;;;;;;;18.75;13.55;;;5.00;99.90;;;;;;5041480;28;20570;-51
2022/04/30 02:59:53;;;;;;;17.08;13.35;;;5.00;99.90;;;;;;5024875;28;20049;-47
2022/04/30 03:00:29;;;;;;;21.30;13.13;;;5.00;99.90;;;;;;5020155;28;20041;-53
2022/04/30 03:03:16;;;;;;;17.80;12.90;;;5.00;99.90;;;;;;5041400;28;20118;-47
2022/04/30 03:05:44;;;;;;;21.05;12.70;;;5.00;99.90;;;;;;5039878;28;20047;-49
2022/04/30 03:08:13;;;;;;;16.27;12.85;;;5.00;99.90;;;;;;5040338;28;20045;-52
2022/04/30 03:10:41;;;;;;;15.45;12.40;;;5.00;99.90;;;;;;5037808;28;20057;-47
2022/04/30 03:13:07;;;;;;;18.15;14.32;;;5.00;99.90;;;;;;5042271;28;20568;-48
2022/04/30 03:15:39;;;;;;;15.73;12.50;;;5.00;99.90;;;;;;5024897;28;20053;-52
2022/04/30 03:23:33;;;;;;;20.00;13.70;;;5.10;99.90;;;;;;4997170;28;1165506;-49
2022/04/30 03:25:59;;;;;;;17.45;13.13;;;5.00;99.90;;;;;;5047915;28;20048;-50
2022/04/30 03:28:26;;;;;;;20.75;13.90;;;5.00;99.90;;;;;;5046151;28;20382;-53
2022/04/30 03:30:52;;;;;;;18.42;12.93;;;5.00;99.90;;;;;;5042955;28;20445;-53
2022/04/30 03:33:18;;;;;;;22.25;12.50;;;5.10;99.90;;;;;;5029276;28;20056;-51
2022/04/30 03:35:44;;;;;;;17.60;11.32;;;5.00;99.90;;;;;;5046288;28;20053;-51
2022/04/30 03:38:10;;;;;;;13.43;10.60;;;4.90;99.90;;;;;;5045511;28;20607;-53
2022/04/30 03:40:39;;;;;;;14.57;11.10;;;4.80;99.90;;;;;;5045444;28;20041;-53
2022/04/30 03:43:07;;;;;;;13.98;11.13;;;4.70;99.90;;;;;;5046810;28;20894;-53
2022/04/30 03:45:34;;;;;;;17.33;11.27;;;4.70;99.90;;;;;;5043394;28;20057;-54
2022/04/30 03:48:00;;;;;;;17.83;11.57;;;4.60;99.90;;;;;;5044572;28;20133;-51
2022/04/30 03:50:27;;;;;;;14.82;11.45;;;4.60;99.90;;;;;;5047330;28;20134;-50
2022/04/30 03:52:53;;;;;;;15.77;11.43;;;4.50;99.90;;;;;;5026632;28;20058;-48
2022/04/30 03:55:19;;;;;;;14.23;11.80;;;4.50;99.90;;;;;;5046032;28;20049;-48
2022/04/30 03:57:45;;;;;;;16.20;12.00;;;4.40;99.90;;;;;;5044859;28;20463;-44
2022/04/30 04:00:12;;;;;;;12.70;10.63;;;4.40;99.90;;;;;;5044270;28;20461;-49
2022/04/30 04:02:42;;;;;;;15.60;12.80;;;4.40;99.90;;;;;;5041863;28;20052;-46
2022/04/30 04:05:11;;;;;;;15.30;11.25;;;4.40;99.90;;;;;;5044321;28;20160;-48
2022/04/30 04:07:38;;;;;;;15.98;12.90;;;4.40;99.90;;;;;;5025598;28;20131;-45
2022/04/30 04:10:05;;;;;;;14.60;11.77;;;4.40;99.90;;;;;;5035999;28;20102;-45
2022/04/30 04:12:31;;;;;;;15.57;11.98;;;4.40;99.90;;;;;;5045082;28;20086;-48
2022/04/30 04:17:41;;;;;;;18.10;11.30;;;4.40;99.90;;;;;;5027571;28;20131;-48
2022/04/30 04:20:10;;;;;;;16.80;11.95;;;4.40;99.90;;;;;;5042513;28;20095;-48
2022/04/30 04:22:37;;;;;;;16.80;11.80;;;4.50;99.90;;;;;;5042402;28;20102;-46
2022/04/30 04:27:53;;;;;;;15.05;11.77;;;4.50;99.90;;;;;;5044105;28;20051;-49
2022/04/30 04:30:22;;;;;;;17.90;13.18;;;4.50;99.90;;;;;;5045510;28;20173;-50
2022/04/30 04:32:49;;;;;;;20.50;12.93;;;4.50;99.90;;;;;;5043539;28;20115;-50
2022/04/30 04:35:16;;;;;;;18.35;12.48;;;4.60;99.90;;;;;;5040083;28;20053;-49
2022/04/30 04:37:43;;;;;;;15.70;13.10;;;4.60;99.90;;;;;;5040638;28;20764;-45
2022/04/30 04:40:11;;;;;;;19.60;13.45;;;4.60;99.90;;;;;;5025549;28;20053;-45
2022/04/30 04:42:38;;;;;;;17.20;13.23;;;4.70;99.90;;;;;;5043455;28;20127;-45
2022/04/30 04:45:05;;;;;;;17.73;12.90;;;4.70;99.90;;;;;;5044235;28;20053;-46
2022/04/30 04:47:34;;;;;;;16.20;12.35;;;4.80;99.90;;;;;;5045896;28;20528;-49
2022/04/30 04:50:02;;;;;;;16.10;12.40;;;4.80;99.90;;;;;;5041213;28;20049;-49
2022/04/30 04:52:29;;;;;;;18.58;12.73;;;4.90;99.90;;;;;;5044762;28;20056;-48
2022/04/30 04:54:55;;;;;;;18.50;13.38;;;4.90;99.90;;;;;;5041461;28;20147;-47
2022/04/30 04:57:21;;;;;;;18.75;13.52;;;5.00;99.90;;;;;;5024896;28;20536;-45
2022/04/30 04:59:47;;;;;;;18.20;13.38;;;5.10;99.90;;;;;;5043883;28;20076;-47
2022/04/30 05:02:13;;;;;;;18.38;14.00;;;5.10;99.90;;;;;;5045548;28;20084;-47
2022/04/30 05:04:39;;;;;;;19.98;13.32;;;5.20;99.90;;;;;;5043759;28;20053;-47
2022/04/30 05:07:05;;;;;;;19.50;12.85;;;5.30;99.90;;;;;;5040707;28;20041;-46
2022/04/30 05:09:32;;;;;;;18.17;13.73;;;5.30;99.90;;;;;;5043427;28;20052;-48
2022/04/30 05:12:01;;;;;;;18.90;12.77;;;5.40;99.90;;;;;;5044505;28;20165;-48
2022/04/30 05:14:33;;;;;;;17.77;14.05;;;5.40;99.90;;;;;;5045445;28;20048;-50
2022/04/30 05:16:59;;;;;;;;;;;5.50;99.90;;;;;;5040361;28;20056;-46
2022/04/30 05:19:26;;;;;;;15.68;13.07;;;5.60;99.90;;;;;;5041206;28;19943;-46
2022/04/30 05:21:52;;;;;;;19.42;14.30;;;5.70;99.90;;;;;;5024178;28;20063;-49
2022/04/30 05:24:18;;;;;;;16.63;12.63;;;5.70;99.90;;;;;;5041048;28;20206;-52
2022/04/30 05:26:45;;;;;;;16.15;11.95;;;5.80;99.90;;;;;;5037880;28;20067;-50
2022/04/30 05:29:11;;;;;;;16.67;12.57;;;6.00;99.90;;;;;;5035684;28;20046;-49
2022/04/30 05:31:37;;;;;;;19.92;13.18;;;6.00;99.90;;;;;;5033410;28;20065;-47
2022/04/30 05:34:03;;;;;;;17.45;13.18;;;6.10;99.90;;;;;;5007063;28;20064;-50
2022/04/30 05:36:29;;;;;;;14.63;12.15;;;6.10;99.90;;;;;;5030382;28;20495;-48
2022/04/30 05:38:56;;;;;;;19.30;13.43;;;6.20;99.90;;;;;;5031701;28;20048;-43
2022/04/30 05:41:22;;;;;;;14.13;12.63;;;6.40;99.90;;;;;;5020217;28;20049;-44
2022/04/30 05:43:48;;;;;;;16.13;12.13;;;6.50;99.90;;;;;;5026116;28;20667;-44
2022/04/30 05:46:14;;;;;;;14.77;12.70;;;6.60;99.90;;;;;;5026590;28;20451;-43
2022/04/30 05:48:40;;;;;;;25.80;12.85;;;6.70;99.90;;;;;;5011748;28;20069;-44
2022/04/30 05:51:06;;;;;;;13.15;11.65;;;6.80;99.90;;;;;;5027828;28;20124;-47
2022/04/30 05:53:33;;;;;;;14.75;12.27;;;6.80;99.90;;;;;;5040394;28;20043;-44
2022/04/30 05:55:59;;;;;;;16.88;11.35;;;6.80;99.90;;;;;;5013408;28;20628;-44
2022/04/30 05:58:25;;;;;;;15.40;12.32;;;6.90;99.90;;;;;;5034667;28;20056;-45
2022/04/30 06:00:51;;;;;;;14.30;11.02;;;7.00;99.90;;;;;;5012791;28;20033;-44
2022/04/30 06:03:18;;;;;;;13.82;11.00;;;7.00;99.90;;;;;;5032131;28;20053;-45
2022/04/30 06:05:44;;;;;;;17.05;12.02;;;7.00;99.90;;;;;;5035147;28;20531;-44
2022/04/30 06:08:11;;;;;;;17.02;12.35;;;7.00;99.90;;;;;;5028353;28;20053;-46
2022/04/30 06:10:37;;;;;;;14.45;11.20;;;7.10;99.90;;;;;;5034860;28;20475;-43
2022/04/30 06:13:04;;;;;;;14.57;11.20;;;7.20;99.90;;;;;;5030173;28;20063;-47
2022/04/30 06:15:30;;;;;;;14.02;10.80;;;7.20;99.90;;;;;;5021332;28;20045;-46
2022/04/30 06:17:56;;;;;;;13.65;10.35;;;7.30;99.90;;;;;;5028780;28;20056;-45
2022/04/30 06:20:22;;;;;;;15.15;11.02;;;7.30;99.90;;;;;;5033402;28;20041;-44
2022/04/30 06:22:48;;;;;;;12.88;11.25;;;7.40;99.90;;;;;;5029554;28;20060;-47
2022/04/30 06:25:14;;;;;;;14.45;11.57;;;7.40;99.90;;;;;;5021686;28;20393;-43
2022/04/30 06:27:41;;;;;;;14.85;11.75;;;7.60;99.90;;;;;;5031345;28;20049;-43
2022/04/30 06:30:08;;;;;;;14.00;10.43;;;7.70;99.90;;;;;;5035897;28;20084;-50
2022/04/30 06:32:34;;;;;;;13.77;11.00;;;7.80;99.90;;;;;;5038049;28;20055;-46
2022/04/30 06:35:02;;;;;;;16.13;11.75;;;7.90;99.90;;;;;;5027569;28;20115;-52
2022/04/30 06:37:28;;;;;;;14.25;11.50;;;8.10;99.90;;;;;;5023034;28;20471;-49
2022/04/30 06:39:55;;;;;;;17.63;11.40;;;8.20;99.90;;;;;;5043354;28;20037;-43
2022/04/30 06:42:21;;;;;;;14.05;11.77;;;8.40;99.90;;;;;;5017544;28;20049;-44
2022/04/30 06:44:47;;;;;;;12.82;10.18;;;8.50;99.90;;;;;;5028995;28;20054;-45
2022/04/30 06:47:18;;;;;;;15.80;10.57;;;8.60;99.90;;;;;;5023149;28;20158;-43
2022/04/30 06:49:44;;;;;;;13.63;10.07;;;8.70;99.90;;;;;;5015072;28;20033;-48
2022/04/30 06:52:11;;;;;;;15.18;11.07;;;8.80;99.90;;;;;;5029849;28;20354;-49
2022/04/30 06:57:22;;;;;;;14.80;10.45;;;9.00;99.90;;;;;;5016359;28;20049;-44
2022/04/30 06:59:52;;;;;;;13.73;9.43;;;9.10;99.90;;;;;;5032915;28;20051;-47
2022/04/30 07:02:21;;;;;;;10.52;9.45;;;9.20;99.90;;;;;;5042254;28;20051;-47
2022/04/30 07:04:50;;;;;;;13.63;10.07;;;9.30;99.90;;;;;;5038068;28;20037;-49
2022/04/30 07:07:17;;;;;;;16.15;9.43;;;9.50;99.90;;;;;;5017298;28;20922;-49
2022/04/30 07:09:44;;;;;;;13.02;8.80;;;9.60;99.90;;;;;;5035832;28;20049;-50
2022/04/30 07:12:13;;;;;;;13.57;8.85;;;9.60;99.90;;;;;;5032968;28;20141;-52
2022/04/30 07:14:40;;;;;;;15.13;8.93;;;9.70;99.90;;;;;;5032922;28;20494;-49
2022/04/30 07:17:09;;;;;;;15.88;9.45;;;9.80;99.90;;;;;;5036995;28;20527;-49
2022/04/30 07:19:36;;;;;;;11.43;9.32;;;9.90;99.90;;;;;;5029903;28;20081;-49
2022/04/30 07:22:03;;;;;;;12.38;8.90;;;9.90;99.90;;;;;;5024164;28;20050;-48
2022/04/30 07:24:31;;;;;;;14.98;8.80;;;9.90;99.90;;;;;;5033701;28;20049;-49
2022/04/30 07:26:57;;;;;;;12.70;8.82;;;9.80;99.90;;;;;;5041685;28;20381;-49
2022/04/30 07:29:23;;;;;;;12.73;8.63;;;9.90;99.90;;;;;;5041826;28;20117;-49
2022/04/30 07:31:49;;;;;;;12.30;8.38;;;9.90;99.90;;;;;;5038448;28;20076;-48
2022/04/30 07:34:16;;;;;;;10.55;8.57;;;10.00;99.90;;;;;;5038920;28;20056;-51
2022/04/30 07:36:42;;;;;;;12.70;8.38;;;10.00;99.90;;;;;;5017308;28;20045;-44
2022/04/30 07:39:08;;;;;;;10.98;8.02;;;10.00;99.90;;;;;;5030615;28;20477;-47
2022/04/30 07:41:35;;;;;;;11.63;8.23;;;10.10;99.90;;;;;;5031765;28;20060;-44
2022/04/30 07:44:01;;;;;;;10.60;8.65;;;10.20;99.90;;;;;;5041350;28;20045;-45
2022/04/30 07:46:28;;;;;;;10.02;8.10;;;10.40;99.90;;;;;;5027943;28;20117;-48
2022/04/30 07:48:54;;;;;;;12.52;8.68;;;10.50;99.90;;;;;;5031494;28;20131;-49
2022/04/30 07:51:34;;;;;;;10.85;8.05;;;10.70;99.90;;;;;;5008329;28;20808;-46
2022/04/30 07:54:01;;;;;;;10.32;7.60;;;10.90;99.90;;;;;;5027134;28;20046;-46
2022/04/30 07:56:28;;;;;;;11.48;6.93;;;11.10;99.90;;;;;;5029162;28;20041;-45
2022/04/30 07:58:54;;;;;;;8.48;7.57;;;11.30;99.90;;;;;;5033663;28;20045;-48
2022/04/30 08:01:21;;;;;;;13.10;7.20;;;11.40;99.90;;;;;;5010101;28;20037;-46
2022/04/30 08:03:47;;;;;;;8.57;6.03;;;11.40;99.90;;;;;;5024817;28;20049;-46
2022/04/30 08:06:14;;;;;;;9.27;7.13;;;11.40;99.90;;;;;;5027324;28;20580;-47
2022/04/30 08:08:40;;;;;;;10.85;6.50;;;11.60;99.90;;;;;;5029552;28;20409;-48
2022/04/30 08:11:06;;;;;;;10.52;6.90;;;11.70;99.90;;;;;;5032184;28;20041;-52
2022/04/30 08:13:33;;;;;;;10.70;7.82;;;11.90;99.90;;;;;;5024677;28;20508;-49
2022/04/30 08:15:59;;;;;;;9.85;6.07;;;12.10;99.90;;;;;;5030330;28;20052;-50
2022/04/30 08:18:26;;;;;;;9.52;5.65;;;12.20;99.90;;;;;;5028183;28;20051;-51
2022/04/30 08:20:53;;;;;;;9.25;5.45;;;12.30;99.90;;;;;;5031107;28;20543;-51
2022/04/30 08:23:19;;;;;;;8.27;5.10;;;12.50;99.90;;;;;;5034918;28;20064;-50
2022/04/30 08:25:46;;;;;;;6.85;5.38;;;12.50;99.90;;;;;;5036175;28;20068;-50
2022/04/30 08:28:12;;;;;;;7.07;4.82;;;12.90;99.90;;;;;;5034435;28;20057;-53
2022/04/30 08:30:38;;;;;;;8.95;4.80;;;13.30;99.90;;;;;;5039875;28;20059;-50
2022/04/30 08:33:04;;;;;;;7.43;4.47;;;13.60;99.90;;;;;;5015706;28;20130;-49
2022/04/30 08:35:30;;;;;;;7.03;5.32;;;14.00;99.90;;;;;;5035500;28;20045;-48
2022/04/30 08:37:56;;;;;;;9.40;4.78;;;14.30;99.90;;;;;;5027115;28;20045;-50
2022/04/30 08:40:24;;;;;;;9.05;6.60;;;15.10;99.90;;;;;;5012329;28;20061;-52
2022/04/30 08:42:50;;;;;;;8.23;5.65;;;15.60;99.90;;;;;;5039709;28;20107;-50
2022/04/30 08:45:16;;;;;;;15.95;14.00;;;16.00;99.90;;;;;;5036007;28;20048;-50
2022/04/30 08:47:47;;;;;;;7.13;3.65;;;16.30;99.90;;;;;;5042134;28;20037;-50
2022/04/30 08:50:15;;;;;;;12.27;9.80;;;16.20;99.90;;;;;;5038912;28;20045;-51
2022/04/30 08:52:41;;;;;;;6.35;3.90;;;16.00;99.90;;;;;;5031843;28;20042;-47
2022/04/30 08:55:09;;;;;;;7.80;3.97;;;16.00;99.90;;;;;;5036406;28;20049;-47
2022/04/30 08:57:35;;;;;;;9.18;5.60;;;16.10;99.90;;;;;;5030853;28;20044;-46
2022/04/30 09:00:03;;;;;;;10.52;7.72;;;16.30;99.90;;;;;;5034681;28;20485;-47
2022/04/30 09:02:29;;;;;;;7.88;4.85;;;15.90;99.90;;;;;;5030680;28;20037;-46
2022/04/30 09:04:55;;;;;;;7.97;4.35;;;15.20;99.90;;;;;;5032564;28;20053;-44
2022/04/30 09:07:24;;;;;;;12.77;10.88;;;15.20;99.90;;;;;;5017984;28;20057;-44
2022/04/30 09:09:59;;;;;;;11.00;5.47;;;15.00;99.90;;;;;;5031878;28;20106;-45
2022/04/30 09:12:28;;;;;;;6.25;4.72;;;14.60;99.90;;;;;;5024695;28;20045;-47
2022/04/30 09:14:54;;;;;;;6.43;4.47;;;14.10;99.90;;;;;;5028718;28;20139;-45
2022/04/30 09:17:23;;;;;;;7.03;4.50;;;13.90;99.90;;;;;;5033207;28;20045;-45
2022/04/30 09:19:52;;;;;;;11.48;6.55;;;13.90;99.90;;;;;;5025509;28;20052;-48
2022/04/30 09:22:38;;;;;;;10.18;8.55;;;13.80;99.90;;;;;;5030952;28;20160;-49
2022/04/30 09:25:15;;;;;;;7.05;5.03;;;13.80;99.90;;;;;;5025090;28;20052;-47
2022/04/30 09:27:46;;;;;;;11.65;6.10;;;13.70;99.90;;;;;;5038946;28;20493;-45
2022/04/30 09:30:24;;;;;;;7.53;5.17;;;13.50;99.90;;;;;;5042858;28;20773;-50
2022/04/30 09:32:58;;;;;;;10.38;5.38;;;13.60;99.90;;;;;;5027298;28;20873;-48
2022/04/30 09:38:09;;;;;;;9.50;5.25;;;13.50;99.90;;;;;;5032883;28;20098;-48
2022/04/30 09:40:36;;;;;;;10.23;6.18;;;13.50;99.90;;;;;;5041761;28;20063;-52
2022/04/30 09:43:04;;;;;;;8.13;5.25;;;13.30;99.90;;;;;;5042680;28;20130;-50
2022/04/30 09:45:32;;;;;;;9.77;5.97;;;13.60;99.90;;;;;;5039229;28;20041;-47
2022/04/30 09:48:01;;;;;;;8.95;6.63;;;14.10;99.90;;;;;;5027497;28;20493;-52
2022/04/30 09:56:07;;;;;;;14.88;9.98;;;14.30;99.90;;;;;;5029424;28;20067;-52
2022/04/30 09:58:38;;;;;;;9.98;7.63;;;14.90;99.90;;;;;;5034367;28;20052;-52
2022/04/30 10:01:06;;;;;;;6.95;5.40;;;15.20;99.90;;;;;;5008299;28;20044;-52
2022/04/30 10:03:34;;;;;;;8.07;5.00;;;15.30;99.90;;;;;;5035391;28;20386;-52
2022/04/30 10:06:03;;;;;;;6.60;4.85;;;15.50;99.90;;;;;;5032679;28;20119;-52
2022/04/30 10:08:37;;;;;;;9.02;5.15;;;15.60;99.90;;;;;;5037402;28;20079;-51
2022/04/30 10:11:18;;;;;;;12.30;8.15;;;16.10;99.90;;;;;;5001859;28;20052;-51
2022/04/30 10:13:57;;;;;;;7.43;4.67;;;16.80;99.90;;;;;;5028945;28;20107;-45
2022/04/30 10:16:28;;;;;;;7.85;5.18;;;16.60;99.90;;;;;;5017830;28;20303;-45
2022/04/30 10:19:10;;;;;;;8.33;5.40;;;16.40;99.90;;;;;;5025882;28;20049;-45
2022/04/30 10:21:38;;;;;;;7.90;4.65;;;16.50;99.90;;;;;;5021124;28;20056;-45
2022/04/30 10:24:06;;;;;;;7.38;4.53;;;16.70;99.90;;;;;;5031461;28;20230;-45
2022/04/30 10:26:32;;;;;;;6.20;4.70;;;17.80;99.90;;;;;;5032242;28;20076;-47
2022/04/30 10:29:11;;;;;;;7.88;4.57;;;18.70;99.90;;;;;;5027623;28;20123;-44
2022/04/30 10:31:45;;;;;;;7.60;4.45;;;18.10;97.20;;;;;;5030871;28;20048;-47
2022/04/30 10:34:12;;;;;;;7.30;4.20;;;17.60;97.00;;;;;;5031581;28;20056;-47
2022/04/30 10:36:39;;;;;;;7.35;4.90;;;17.10;95.20;;;;;;5034828;28;20048;-47
2022/04/30 10:39:09;;;;;;;17.00;13.20;;;16.80;93.40;;;;;;4983399;28;20452;-50
2022/04/30 10:41:49;;;;;;;6.38;4.50;;;16.40;92.30;;;;;;5034952;28;20519;-49
2022/04/30 10:44:15;;;;;;;5.28;4.60;;;16.10;88.70;;;;;;5032317;28;20408;-49
2022/04/30 10:46:48;;;;;;;9.25;6.32;;;15.70;90.10;;;;;;5034507;28;20056;-48
2022/04/30 10:49:14;;;;;;;6.97;3.67;;;15.50;89.40;;;;;;5029903;28;20049;-48
2022/04/30 10:51:41;;;;;;;10.40;7.72;;;15.30;87.90;;;;;;5020724;28;20052;-46
2022/04/30 10:54:16;;;;;;;6.75;3.63;;;15.10;88.30;;;;;;5027595;28;20519;-46
2022/04/30 10:56:43;;;;;;;6.88;4.47;;;15.00;85.40;;;;;;5008599;28;20048;-44
2022/04/30 10:59:09;;;;;;;7.63;4.05;;;14.90;87.00;;;;;;5011233;28;20044;-49
2022/04/30 11:01:36;;;;;;;6.68;4.68;;;14.40;87.70;;;;;;5030290;28;20047;-46
2022/04/30 11:04:03;;;;;;;7.95;4.00;;;14.30;90.10;;;;;;5018440;28;20049;-49
2022/04/30 11:06:31;;;;;;;7.38;4.70;;;14.00;92.30;;;;;;5034153;28;20416;-49
2022/04/30 11:09:03;;;;;;;5.70;4.30;;;13.80;95.10;;;;;;4999992;28;20052;-49
2022/04/30 11:11:31;;;;;;;10.48;6.07;;;13.40;98.20;;;;;;5030358;28;20184;-47
2022/04/30 11:14:07;;;;;;;5.63;4.45;;;13.30;98.00;;;;;;5020935;28;20170;-48
2022/04/30 11:16:36;;;;;;;7.35;4.60;;;13.20;98.40;;;;;;5030578;28;20088;-46
2022/04/30 11:19:10;;;;;;;9.27;4.38;;;13.20;99.80;;;;;;5026204;28;20049;-47
2022/04/30 11:21:41;;;;;;;6.50;4.07;;;13.10;99.90;;;;;;5027550;28;20691;-47
2022/04/30 11:24:08;;;;;;;6.93;4.50;;;13.00;99.70;;;;;;5026982;28;20061;-50
2022/04/30 11:26:39;;;;;;;6.72;4.05;;;12.90;98.70;;;;;;4978817;28;20078;-45
2022/04/30 11:29:13;;;;;;;5.73;3.90;;;12.80;97.80;;;;;;5032343;28;20747;-44
2022/04/30 11:31:41;;;;;;;8.10;4.40;;;12.80;99.80;;;;;;5037275;28;20052;-44
2022/04/30 11:34:13;;;;;;;7.28;4.10;;;12.70;98.20;;;;;;5030535;28;20051;-46
2022/04/30 11:36:41;;;;;;;7.35;4.78;;;12.70;97.90;;;;;;5027967;28;20046;-45
2022/04/30 11:39:10;;;;;;;5.53;4.43;;;12.60;98.70;;;;;;5014362;28;20036;-47
2022/04/30 11:41:50;;;;;;;8.45;4.28;;;12.70;99.90;;;;;;5038413;28;20141;-50
2022/04/30 11:44:22;;;;;;;9.10;5.38;;;12.60;99.90;;;;;;5025680;28;20075;-50
2022/04/30 11:46:53;;;;;;;14.18;6.20;;;12.50;99.90;;;;;;5030917;28;20049;-46
2022/04/30 11:49:22;;;;;;;53.40;47.93;;;12.70;99.90;;;;;;5030030;28;20081;-47
2022/04/30 11:51:50;;;;;;;11.00;4.90;;;12.60;99.90;;;;;;5036590;28;20112;-43
2022/04/30 11:54:23;;;;;;;8.40;4.60;;;12.60;99.90;;;;;;5027915;28;20060;-49
2022/04/30 11:56:51;;;;;;;9.30;5.30;;;12.70;99.90;;;;;;5031099;28;20412;-48
2022/04/30 11:59:31;;;;;;;8.35;5.03;;;12.60;99.90;;;;;;5033123;28;20052;-44
2022/04/30 12:02:09;;;;;;;9.60;4.63;;;12.70;99.90;;;;;;5036957;28;20045;-46
2022/04/30 12:04:37;;;;;;;7.50;4.70;;;12.70;99.90;;;;;;5034834;28;20103;-49
2022/04/30 12:07:05;;;;;;;7.88;5.43;;;12.80;99.90;;;;;;5028964;28;20150;-48
2022/04/30 12:09:37;;;;;;;8.52;5.82;;;12.90;99.90;;;;;;5025881;28;20044;-45
2022/04/30 12:12:16;;;;;;;8.73;4.88;;;12.90;99.90;;;;;;5034569;28;20490;-53
2022/04/30 12:14:47;;;;;;;8.63;5.43;;;13.10;99.90;;;;;;5038101;28;20087;-54
2022/04/30 12:17:13;;;;;;;8.20;5.40;;;12.90;99.90;;;;;;5028737;28;20251;-54
2022/04/30 12:25:15;;;;;;;7.43;5.00;;;12.80;99.90;;;;;;5044072;28;20118;-53
2022/04/30 12:27:51;;;;;;;9.43;5.47;;;12.80;99.90;;;;;;5031606;28;20140;-54
2022/04/30 12:30:18;;;;;;;10.07;5.63;;;12.90;99.90;;;;;;5030456;28;20047;-54
2022/04/30 12:32:52;;;;;;;11.10;6.22;;;12.80;99.90;;;;;;5032894;28;20128;-53
2022/04/30 12:35:25;;;;;;;9.07;5.53;;;12.80;99.90;;;;;;5044408;28;20045;-51
2022/04/30 12:38:14;;;;;;;49.55;9.60;;;12.80;99.90;;;;;;5029424;28;20045;-51
2022/04/30 12:40:47;;;;;;;10.57;5.40;;;12.70;99.90;;;;;;5036561;28;20831;-52
2022/04/30 12:43:14;;;;;;;8.68;5.15;;;12.70;99.90;;;;;;5031448;28;20052;-53
2022/04/30 12:45:44;;;;;;;9.63;5.85;;;12.60;99.90;;;;;;5044738;28;20063;-52
2022/04/30 12:48:10;;;;;;;8.27;5.43;;;12.70;99.90;;;;;;5043877;28;20044;-51
2022/04/30 12:50:38;;;;;;;7.90;6.00;;;12.70;99.90;;;;;;5031458;28;20053;-52
2022/04/30 12:53:09;;;;;;;10.18;5.57;;;12.60;99.90;;;;;;5014011;28;20140;-53
2022/04/30 12:55:38;;;;;;;10.73;5.25;;;12.60;99.90;;;;;;5029147;28;20489;-45
2022/04/30 12:58:04;;;;;;;7.78;5.40;;;12.60;99.90;;;;;;5036496;28;20396;-53
2022/04/30 13:00:32;;;;;;;7.63;5.20;;;12.60;99.90;;;;;;5035820;28;20235;-50
2022/04/30 13:03:00;;;;;;;8.93;5.20;;;12.50;99.90;;;;;;5038379;28;20068;-46
2022/04/30 13:05:26;;;;;;;8.23;5.07;;;12.60;99.90;;;;;;5031673;28;20048;-55
2022/04/30 13:07:56;;;;;;;7.43;4.93;;;12.70;99.90;;;;;;5008956;28;20060;-51
2022/04/30 13:16:11;;;;;;;7.40;4.43;;;12.50;99.90;;;;;;5016043;28;20077;-49
2022/04/30 13:18:37;;;;;;;7.60;5.15;;;12.50;99.90;;;;;;4986948;28;20059;-54
2022/04/30 13:21:04;;;;;;;7.43;5.85;;;12.60;99.90;;;;;;5025945;28;20683;-54
2022/04/30 13:23:30;;;;;;;8.68;5.35;;;12.60;99.90;;;;;;5038806;28;20048;-53
2022/04/30 13:25:56;;;;;;;8.40;4.70;;;12.60;99.90;;;;;;5033487;28;20101;-52